sensor_id;sensor_type;location;lat;lon;timestamp;temperature;humidity
75442;DHT22;64019;48.312;14.226;2023-07-29T00:02:01;19.00;99.90
75442;DHT22;64019;48.312;14.226;2023-07-29T00:04:28;19.00;99.90
75442;DHT22;64019;48.312;14.226;2023-07-29T00:06:53;19.00;99.90
75442;DHT22;64019;48.312;14.226;2023-07-29T00:09:19;18.90;99.90
75442;DHT22;64019;48.312;14.226;2023-07-29T00:11:45;18.90;99.90
75442;DHT22;64019;48.312;14.226;2023-07-29T00:14:10;18.90;99.90
75442;DHT22;64019;48.312;14.226;2023-07-29T00:16:36;18.90;99.90
75442;DHT22;64019;48.312;14.226;2023-07-29T00:19:02;18.80;99.90
75442;DHT22;64019;48.312;14.226;2023-07-29T00:21:28;18.80;99.90
75442;DHT22;64019;48.312;14.226;2023-07-29T00:23:54;18.80;99.90
75442;DHT22;64019;48.312;14.226;2023-07-29T00:26:23;18.80;99.90
75442;DHT22;64019;48.312;14.226;2023-07-29T00:28:48;18.80;99.90
75442;DHT22;64019;48.312;14.226;2023-07-29T00:31:14;18.80;99.90
75442;DHT22;64019;48.312;14.226;2023-07-29T00:33:40;18.80;99.90
75442;DHT22;64019;48.312;14.226;2023-07-29T00:36:05;18.80;99.90
75442;DHT22;64019;48.312;14.226;2023-07-29T00:38:31;18.80;99.90
75442;DHT22;64019;48.312;14.226;2023-07-29T00:40:57;18.80;99.90
75442;DHT22;64019;48.312;14.226;2023-07-29T00:43:24;18.80;99.90
75442;DHT22;64019;48.312;14.226;2023-07-29T00:45:50;18.80;99.90
75442;DHT22;64019;48.312;14.226;2023-07-29T00:48:16;18.90;99.90
75442;DHT22;64019;48.312;14.226;2023-07-29T00:50:42;18.90;99.90
75442;DHT22;64019;48.312;14.226;2023-07-29T00:53:07;18.80;99.90
75442;DHT22;64019;48.312;14.226;2023-07-29T00:55:33;18.90;99.90
75442;DHT22;64019;48.312;14.226;2023-07-29T00:57:59;18.80;99.90
75442;DHT22;64019;48.312;14.226;2023-07-29T01:00:25;18.80;99.90
75442;DHT22;64019;48.312;14.226;2023-07-29T01:02:52;18.80;99.90
75442;DHT22;64019;48.312;14.226;2023-07-29T01:05:20;18.80;99.90
75442;DHT22;64019;48.312;14.226;2023-07-29T01:16:04;18.70;99.90
75442;DHT22;64019;48.312;14.226;2023-07-29T01:18:36;18.70;99.90
75442;DHT22;64019;48.312;14.226;2023-07-29T01:21:08;18.70;99.90
75442;DHT22;64019;48.312;14.226;2023-07-29T01:23:34;18.70;99.90
75442;DHT22;64019;48.312;14.226;2023-07-29T01:26:02;18.60;99.90
75442;DHT22;64019;48.312;14.226;2023-07-29T01:28:29;18.50;99.90
75442;DHT22;64019;48.312;14.226;2023-07-29T01:31:07;18.60;99.90
75442;DHT22;64019;48.312;14.226;2023-07-29T01:33:40;18.50;99.90
75442;DHT22;64019;48.312;14.226;2023-07-29T01:36:18;18.50;99.90
75442;DHT22;64019;48.312;14.226;2023-07-29T01:38:48;18.40;99.90
75442;DHT22;64019;48.312;14.226;2023-07-29T01:41:14;18.40;99.90
75442;DHT22;64019;48.312;14.226;2023-07-29T01:43:41;18.30;99.90
75442;DHT22;64019;48.312;14.226;2023-07-29T01:46:10;18.40;99.90
75442;DHT22;64019;48.312;14.226;2023-07-29T01:48:37;18.30;99.90
75442;DHT22;64019;48.312;14.226;2023-07-29T01:51:03;18.40;99.90
75442;DHT22;64019;48.312;14.226;2023-07-29T01:53:29;18.40;99.90
75442;DHT22;64019;48.312;14.226;2023-07-29T01:55:54;18.30;99.90
75442;DHT22;64019;48.312;14.226;2023-07-29T01:58:22;18.30;99.90
75442;DHT22;64019;48.312;14.226;2023-07-29T02:00:48;18.20;99.90
75442;DHT22;64019;48.312;14.226;2023-07-29T02:03:13;18.20;99.90
75442;DHT22;64019;48.312;14.226;2023-07-29T02:05:39;18.10;99.90
75442;DHT22;64019;48.312;14.226;2023-07-29T02:08:05;18.10;99.90
75442;DHT22;64019;48.312;14.226;2023-07-29T02:10:31;18.10;99.90
75442;DHT22;64019;48.312;14.226;2023-07-29T02:12:57;18.10;99.90
75442;DHT22;64019;48.312;14.226;2023-07-29T02:15:23;18.10;99.90
75442;DHT22;64019;48.312;14.226;2023-07-29T02:17:50;18.10;99.90
75442;DHT22;64019;48.312;14.226;2023-07-29T02:20:17;18.10;99.90
75442;DHT22;64019;48.312;14.226;2023-07-29T02:22:42;18.10;99.90
75442;DHT22;64019;48.312;14.226;2023-07-29T02:25:08;18.00;99.90
75442;DHT22;64019;48.312;14.226;2023-07-29T02:27:35;18.00;99.90
75442;DHT22;64019;48.312;14.226;2023-07-29T02:30:01;17.90;99.90
75442;DHT22;64019;48.312;14.226;2023-07-29T02:32:27;17.80;99.90
75442;DHT22;64019;48.312;14.226;2023-07-29T02:34:53;17.80;99.90
75442;DHT22;64019;48.312;14.226;2023-07-29T02:37:18;17.80;99.90
75442;DHT22;64019;48.312;14.226;2023-07-29T02:39:44;17.80;99.90
75442;DHT22;64019;48.312;14.226;2023-07-29T02:42:10;17.80;99.90
75442;DHT22;64019;48.312;14.226;2023-07-29T02:44:36;17.80;99.90
75442;DHT22;64019;48.312;14.226;2023-07-29T02:47:01;17.90;99.90
75442;DHT22;64019;48.312;14.226;2023-07-29T02:49:27;17.90;99.90
75442;DHT22;64019;48.312;14.226;2023-07-29T02:51:53;17.80;99.90
75442;DHT22;64019;48.312;14.226;2023-07-29T02:54:18;17.90;99.90
75442;DHT22;64019;48.312;14.226;2023-07-29T02:56:44;17.80;99.90
75442;DHT22;64019;48.312;14.226;2023-07-29T02:59:10;17.90;99.90
75442;DHT22;64019;48.312;14.226;2023-07-29T03:01:36;17.90;99.90
75442;DHT22;64019;48.312;14.226;2023-07-29T03:04:01;17.80;99.90
75442;DHT22;64019;48.312;14.226;2023-07-29T03:06:27;17.80;99.90
75442;DHT22;64019;48.312;14.226;2023-07-29T03:08:53;17.80;99.90
75442;DHT22;64019;48.312;14.226;2023-07-29T03:11:19;17.80;99.90
75442;DHT22;64019;48.312;14.226;2023-07-29T03:13:44;17.70;99.90
75442;DHT22;64019;48.312;14.226;2023-07-29T03:16:13;17.80;99.90
75442;DHT22;64019;48.312;14.226;2023-07-29T03:18:40;17.70;99.90
75442;DHT22;64019;48.312;14.226;2023-07-29T03:21:06;17.80;99.90
75442;DHT22;64019;48.312;14.226;2023-07-29T03:23:32;17.80;99.90
75442;DHT22;64019;48.312;14.226;2023-07-29T03:25:59;17.70;99.90
75442;DHT22;64019;48.312;14.226;2023-07-29T03:28:28;17.70;99.90
75442;DHT22;64019;48.312;14.226;2023-07-29T03:30:54;17.70;99.90
75442;DHT22;64019;48.312;14.226;2023-07-29T03:33:20;17.60;99.90
75442;DHT22;64019;48.312;14.226;2023-07-29T03:35:46;17.60;99.90
75442;DHT22;64019;48.312;14.226;2023-07-29T03:38:12;17.60;99.90
75442;DHT22;64019;48.312;14.226;2023-07-29T03:40:40;17.60;99.90
75442;DHT22;64019;48.312;14.226;2023-07-29T03:43:06;17.50;99.90
75442;DHT22;64019;48.312;14.226;2023-07-29T03:45:32;17.50;99.90
75442;DHT22;64019;48.312;14.226;2023-07-29T03:47:59;17.50;99.90
75442;DHT22;64019;48.312;14.226;2023-07-29T03:50:25;17.40;99.90
75442;DHT22;64019;48.312;14.226;2023-07-29T03:52:50;17.40;99.90
75442;DHT22;64019;48.312;14.226;2023-07-29T03:55:16;17.30;99.90
75442;DHT22;64019;48.312;14.226;2023-07-29T03:57:42;17.30;99.90
75442;DHT22;64019;48.312;14.226;2023-07-29T04:00:08;17.40;99.90
75442;DHT22;64019;48.312;14.226;2023-07-29T04:02:34;17.40;99.90
75442;DHT22;64019;48.312;14.226;2023-07-29T04:05:03;17.40;99.90
75442;DHT22;64019;48.312;14.226;2023-07-29T04:07:29;17.40;99.90
75442;DHT22;64019;48.312;14.226;2023-07-29T04:09:55;17.40;99.90
75442;DHT22;64019;48.312;14.226;2023-07-29T04:12:21;17.40;99.90
75442;DHT22;64019;48.312;14.226;2023-07-29T04:14:47;17.40;99.90
75442;DHT22;64019;48.312;14.226;2023-07-29T04:17:12;17.50;99.90
75442;DHT22;64019;48.312;14.226;2023-07-29T04:19:38;17.50;99.90
75442;DHT22;64019;48.312;14.226;2023-07-29T04:22:04;17.50;99.90
75442;DHT22;64019;48.312;14.226;2023-07-29T04:24:30;17.60;99.90
75442;DHT22;64019;48.312;14.226;2023-07-29T04:26:55;17.60;99.90
75442;DHT22;64019;48.312;14.226;2023-07-29T04:29:21;17.70;99.90
75442;DHT22;64019;48.312;14.226;2023-07-29T04:31:49;17.70;99.90
75442;DHT22;64019;48.312;14.226;2023-07-29T04:34:14;17.70;99.90
75442;DHT22;64019;48.312;14.226;2023-07-29T04:36:40;17.80;99.90
75442;DHT22;64019;48.312;14.226;2023-07-29T04:39:06;17.80;99.90
75442;DHT22;64019;48.312;14.226;2023-07-29T04:41:31;17.80;99.90
75442;DHT22;64019;48.312;14.226;2023-07-29T04:43:57;17.90;99.90
75442;DHT22;64019;48.312;14.226;2023-07-29T04:46:23;18.00;99.90
75442;DHT22;64019;48.312;14.226;2023-07-29T04:48:49;18.00;99.90
75442;DHT22;64019;48.312;14.226;2023-07-29T04:51:14;18.00;99.90
75442;DHT22;64019;48.312;14.226;2023-07-29T04:53:40;18.00;99.90
75442;DHT22;64019;48.312;14.226;2023-07-29T04:56:06;18.10;99.90
75442;DHT22;64019;48.312;14.226;2023-07-29T04:58:31;18.20;99.90
75442;DHT22;64019;48.312;14.226;2023-07-29T05:01:00;18.20;99.90
75442;DHT22;64019;48.312;14.226;2023-07-29T05:03:26;18.10;99.90
75442;DHT22;64019;48.312;14.226;2023-07-29T05:05:52;18.20;99.90
75442;DHT22;64019;48.312;14.226;2023-07-29T05:08:20;18.20;99.90
75442;DHT22;64019;48.312;14.226;2023-07-29T05:10:49;18.30;99.90
75442;DHT22;64019;48.312;14.226;2023-07-29T05:13:15;18.40;99.90
75442;DHT22;64019;48.312;14.226;2023-07-29T05:15:41;18.50;99.90
75442;DHT22;64019;48.312;14.226;2023-07-29T05:18:07;18.50;99.90
75442;DHT22;64019;48.312;14.226;2023-07-29T05:20:32;18.50;99.90
75442;DHT22;64019;48.312;14.226;2023-07-29T05:22:58;18.50;99.90
75442;DHT22;64019;48.312;14.226;2023-07-29T05:25:24;18.50;99.90
75442;DHT22;64019;48.312;14.226;2023-07-29T05:27:49;18.50;99.90
75442;DHT22;64019;48.312;14.226;2023-07-29T05:30:15;18.50;99.90
75442;DHT22;64019;48.312;14.226;2023-07-29T05:32:41;18.50;99.90
75442;DHT22;64019;48.312;14.226;2023-07-29T05:35:07;18.60;99.90
75442;DHT22;64019;48.312;14.226;2023-07-29T05:37:32;18.60;99.90
75442;DHT22;64019;48.312;14.226;2023-07-29T05:39:58;18.60;99.90
75442;DHT22;64019;48.312;14.226;2023-07-29T05:42:24;18.60;99.90
75442;DHT22;64019;48.312;14.226;2023-07-29T05:44:50;18.60;99.90
75442;DHT22;64019;48.312;14.226;2023-07-29T05:47:15;18.60;99.90
75442;DHT22;64019;48.312;14.226;2023-07-29T05:49:41;18.60;99.90
75442;DHT22;64019;48.312;14.226;2023-07-29T05:52:07;18.80;99.90
75442;DHT22;64019;48.312;14.226;2023-07-29T05:54:33;18.90;99.90
75442;DHT22;64019;48.312;14.226;2023-07-29T05:56:58;19.00;99.90
75442;DHT22;64019;48.312;14.226;2023-07-29T05:59:24;19.10;99.90
75442;DHT22;64019;48.312;14.226;2023-07-29T06:01:50;19.30;99.90
75442;DHT22;64019;48.312;14.226;2023-07-29T06:04:15;19.40;99.90
75442;DHT22;64019;48.312;14.226;2023-07-29T06:06:41;19.50;99.90
75442;DHT22;64019;48.312;14.226;2023-07-29T06:09:07;19.60;99.90
75442;DHT22;64019;48.312;14.226;2023-07-29T06:11:32;19.70;99.90
75442;DHT22;64019;48.312;14.226;2023-07-29T06:13:58;19.80;99.90
75442;DHT22;64019;48.312;14.226;2023-07-29T06:16:24;19.80;99.90
75442;DHT22;64019;48.312;14.226;2023-07-29T06:18:50;19.90;99.90
75442;DHT22;64019;48.312;14.226;2023-07-29T06:21:18;20.10;99.90
75442;DHT22;64019;48.312;14.226;2023-07-29T06:23:45;20.20;99.90
75442;DHT22;64019;48.312;14.226;2023-07-29T06:26:11;20.10;99.90
75442;DHT22;64019;48.312;14.226;2023-07-29T06:28:37;20.20;99.90
75442;DHT22;64019;48.312;14.226;2023-07-29T06:31:03;20.20;99.90
75442;DHT22;64019;48.312;14.226;2023-07-29T06:33:29;20.20;99.90
75442;DHT22;64019;48.312;14.226;2023-07-29T06:35:54;20.30;99.90
75442;DHT22;64019;48.312;14.226;2023-07-29T06:38:20;20.40;99.90
75442;DHT22;64019;48.312;14.226;2023-07-29T06:40:48;20.40;99.90
75442;DHT22;64019;48.312;14.226;2023-07-29T06:43:14;20.40;99.90
75442;DHT22;64019;48.312;14.226;2023-07-29T06:45:39;20.40;99.90
75442;DHT22;64019;48.312;14.226;2023-07-29T06:48:05;20.40;99.90
75442;DHT22;64019;48.312;14.226;2023-07-29T06:50:31;20.50;99.90
75442;DHT22;64019;48.312;14.226;2023-07-29T06:52:57;20.60;99.90
75442;DHT22;64019;48.312;14.226;2023-07-29T06:55:22;20.70;99.90
75442;DHT22;64019;48.312;14.226;2023-07-29T06:57:48;20.70;99.90
75442;DHT22;64019;48.312;14.226;2023-07-29T07:00:14;20.80;99.90
75442;DHT22;64019;48.312;14.226;2023-07-29T07:02:40;20.90;99.90
75442;DHT22;64019;48.312;14.226;2023-07-29T07:05:05;20.90;99.90
75442;DHT22;64019;48.312;14.226;2023-07-29T07:07:31;20.90;99.90
75442;DHT22;64019;48.312;14.226;2023-07-29T07:09:57;21.00;99.90
75442;DHT22;64019;48.312;14.226;2023-07-29T07:12:23;21.10;99.90
75442;DHT22;64019;48.312;14.226;2023-07-29T07:14:49;21.10;99.90
75442;DHT22;64019;48.312;14.226;2023-07-29T07:17:15;21.10;99.90
75442;DHT22;64019;48.312;14.226;2023-07-29T07:19:40;21.20;99.90
75442;DHT22;64019;48.312;14.226;2023-07-29T07:22:06;21.30;99.90
75442;DHT22;64019;48.312;14.226;2023-07-29T07:24:32;21.20;99.90
75442;DHT22;64019;48.312;14.226;2023-07-29T07:26:57;21.30;99.90
75442;DHT22;64019;48.312;14.226;2023-07-29T07:29:23;21.40;99.90
75442;DHT22;64019;48.312;14.226;2023-07-29T07:31:53;21.50;99.90
75442;DHT22;64019;48.312;14.226;2023-07-29T07:34:20;21.60;99.90
75442;DHT22;64019;48.312;14.226;2023-07-29T07:36:46;21.70;99.90
75442;DHT22;64019;48.312;14.226;2023-07-29T07:39:12;21.70;99.90
75442;DHT22;64019;48.312;14.226;2023-07-29T07:41:38;21.80;99.90
75442;DHT22;64019;48.312;14.226;2023-07-29T07:44:04;22.00;99.90
75442;DHT22;64019;48.312;14.226;2023-07-29T07:46:30;22.30;99.90
75442;DHT22;64019;48.312;14.226;2023-07-29T07:48:55;22.30;99.90
75442;DHT22;64019;48.312;14.226;2023-07-29T07:51:21;22.40;99.90
75442;DHT22;64019;48.312;14.226;2023-07-29T07:53:47;22.50;99.90
75442;DHT22;64019;48.312;14.226;2023-07-29T07:56:13;22.50;99.90
75442;DHT22;64019;48.312;14.226;2023-07-29T07:58:39;22.60;99.90
75442;DHT22;64019;48.312;14.226;2023-07-29T08:01:06;22.70;99.90
75442;DHT22;64019;48.312;14.226;2023-07-29T08:03:32;22.70;99.90
75442;DHT22;64019;48.312;14.226;2023-07-29T08:05:58;22.60;99.90
75442;DHT22;64019;48.312;14.226;2023-07-29T08:08:28;22.70;99.90
75442;DHT22;64019;48.312;14.226;2023-07-29T08:10:54;22.70;99.90
75442;DHT22;64019;48.312;14.226;2023-07-29T08:13:22;22.80;99.90
75442;DHT22;64019;48.312;14.226;2023-07-29T08:15:49;23.00;99.90
75442;DHT22;64019;48.312;14.226;2023-07-29T08:18:15;23.10;99.90
75442;DHT22;64019;48.312;14.226;2023-07-29T08:20:51;23.30;99.90
75442;DHT22;64019;48.312;14.226;2023-07-29T08:23:17;23.20;99.90
75442;DHT22;64019;48.312;14.226;2023-07-29T08:25:43;23.20;99.90
75442;DHT22;64019;48.312;14.226;2023-07-29T08:28:08;23.20;99.90
75442;DHT22;64019;48.312;14.226;2023-07-29T08:30:36;23.10;99.90
75442;DHT22;64019;48.312;14.226;2023-07-29T08:33:02;23.00;99.90
75442;DHT22;64019;48.312;14.226;2023-07-29T08:35:28;23.00;99.90
75442;DHT22;64019;48.312;14.226;2023-07-29T08:37:54;22.90;99.90
75442;DHT22;64019;48.312;14.226;2023-07-29T08:40:23;22.90;99.90
75442;DHT22;64019;48.312;14.226;2023-07-29T08:42:50;22.80;99.90
75442;DHT22;64019;48.312;14.226;2023-07-29T08:45:17;22.80;99.90
75442;DHT22;64019;48.312;14.226;2023-07-29T08:47:43;22.70;99.90
75442;DHT22;64019;48.312;14.226;2023-07-29T08:50:09;22.70;99.90
75442;DHT22;64019;48.312;14.226;2023-07-29T08:52:35;22.70;99.90
75442;DHT22;64019;48.312;14.226;2023-07-29T08:55:02;22.80;99.90
75442;DHT22;64019;48.312;14.226;2023-07-29T08:57:28;22.80;99.90
75442;DHT22;64019;48.312;14.226;2023-07-29T08:59:55;22.80;99.90
75442;DHT22;64019;48.312;14.226;2023-07-29T09:02:21;22.80;99.90
75442;DHT22;64019;48.312;14.226;2023-07-29T09:04:47;22.80;99.90
75442;DHT22;64019;48.312;14.226;2023-07-29T09:07:13;22.80;99.90
75442;DHT22;64019;48.312;14.226;2023-07-29T09:09:39;22.90;99.90
75442;DHT22;64019;48.312;14.226;2023-07-29T09:12:06;23.00;99.90
75442;DHT22;64019;48.312;14.226;2023-07-29T09:14:31;23.00;99.90
75442;DHT22;64019;48.312;14.226;2023-07-29T09:16:57;23.10;99.90
75442;DHT22;64019;48.312;14.226;2023-07-29T09:19:25;23.20;99.90
75442;DHT22;64019;48.312;14.226;2023-07-29T09:21:52;23.30;99.90
75442;DHT22;64019;48.312;14.226;2023-07-29T09:24:18;23.50;99.90
75442;DHT22;64019;48.312;14.226;2023-07-29T09:26:50;23.50;99.90
75442;DHT22;64019;48.312;14.226;2023-07-29T09:29:22;23.60;99.90
75442;DHT22;64019;48.312;14.226;2023-07-29T09:31:48;23.70;99.90
75442;DHT22;64019;48.312;14.226;2023-07-29T09:34:15;23.70;99.90
75442;DHT22;64019;48.312;14.226;2023-07-29T09:36:42;23.90;99.90
75442;DHT22;64019;48.312;14.226;2023-07-29T09:39:13;24.10;99.90
75442;DHT22;64019;48.312;14.226;2023-07-29T09:41:39;24.30;99.90
75442;DHT22;64019;48.312;14.226;2023-07-29T09:44:04;24.50;99.90
75442;DHT22;64019;48.312;14.226;2023-07-29T09:46:37;24.70;99.90
75442;DHT22;64019;48.312;14.226;2023-07-29T09:49:04;24.70;99.90
75442;DHT22;64019;48.312;14.226;2023-07-29T09:51:31;24.60;99.90
75442;DHT22;64019;48.312;14.226;2023-07-29T09:53:57;24.60;99.90
75442;DHT22;64019;48.312;14.226;2023-07-29T09:56:27;24.60;99.90
75442;DHT22;64019;48.312;14.226;2023-07-29T09:58:56;24.40;99.90
75442;DHT22;64019;48.312;14.226;2023-07-29T10:01:23;24.30;99.90
75442;DHT22;64019;48.312;14.226;2023-07-29T10:03:49;24.20;99.90
75442;DHT22;64019;48.312;14.226;2023-07-29T10:06:15;23.80;99.90
75442;DHT22;64019;48.312;14.226;2023-07-29T10:08:42;23.40;99.90
75442;DHT22;64019;48.312;14.226;2023-07-29T10:11:10;23.00;99.90
75442;DHT22;64019;48.312;14.226;2023-07-29T10:13:37;22.60;99.90
75442;DHT22;64019;48.312;14.226;2023-07-29T10:16:03;22.30;99.90
75442;DHT22;64019;48.312;14.226;2023-07-29T10:18:33;22.00;99.90
75442;DHT22;64019;48.312;14.226;2023-07-29T10:21:00;21.90;99.90
75442;DHT22;64019;48.312;14.226;2023-07-29T10:23:27;21.80;99.90
75442;DHT22;64019;48.312;14.226;2023-07-29T10:26:03;21.90;99.90
75442;DHT22;64019;48.312;14.226;2023-07-29T10:28:30;22.00;99.90
75442;DHT22;64019;48.312;14.226;2023-07-29T10:30:57;22.20;99.90
75442;DHT22;64019;48.312;14.226;2023-07-29T10:33:23;22.40;99.90
75442;DHT22;64019;48.312;14.226;2023-07-29T10:35:49;22.60;99.90
75442;DHT22;64019;48.312;14.226;2023-07-29T10:38:16;22.80;99.90
75442;DHT22;64019;48.312;14.226;2023-07-29T10:40:50;22.90;99.90
75442;DHT22;64019;48.312;14.226;2023-07-29T10:43:40;23.00;99.90
75442;DHT22;64019;48.312;14.226;2023-07-29T10:46:19;23.00;99.90
75442;DHT22;64019;48.312;14.226;2023-07-29T10:51:24;22.90;99.90
75442;DHT22;64019;48.312;14.226;2023-07-29T10:53:59;23.00;99.90
75442;DHT22;64019;48.312;14.226;2023-07-29T10:56:30;23.10;99.90
75442;DHT22;64019;48.312;14.226;2023-07-29T10:58:57;23.30;99.90
75442;DHT22;64019;48.312;14.226;2023-07-29T11:01:28;23.40;99.90
75442;DHT22;64019;48.312;14.226;2023-07-29T11:04:23;23.30;99.90
75442;DHT22;64019;48.312;14.226;2023-07-29T11:09:41;23.50;99.90
75442;DHT22;64019;48.312;14.226;2023-07-29T11:15:11;23.50;99.90
75442;DHT22;64019;48.312;14.226;2023-07-29T11:17:42;23.60;99.90
75442;DHT22;64019;48.312;14.226;2023-07-29T11:20:08;23.40;99.90
75442;DHT22;64019;48.312;14.226;2023-07-29T11:22:34;23.50;99.90
75442;DHT22;64019;48.312;14.226;2023-07-29T11:25:00;23.70;99.90
75442;DHT22;64019;48.312;14.226;2023-07-29T11:27:26;23.80;99.90
75442;DHT22;64019;48.312;14.226;2023-07-29T11:29:59;23.90;99.90
75442;DHT22;64019;48.312;14.226;2023-07-29T11:32:25;24.00;99.90
75442;DHT22;64019;48.312;14.226;2023-07-29T11:34:51;24.20;99.90
75442;DHT22;64019;48.312;14.226;2023-07-29T11:37:17;24.30;99.90
75442;DHT22;64019;48.312;14.226;2023-07-29T11:39:44;24.20;99.90
75442;DHT22;64019;48.312;14.226;2023-07-29T11:42:14;24.20;99.90
75442;DHT22;64019;48.312;14.226;2023-07-29T11:44:40;24.20;99.90
75442;DHT22;64019;48.312;14.226;2023-07-29T11:47:11;24.10;99.90
75442;DHT22;64019;48.312;14.226;2023-07-29T11:49:38;24.10;99.90
75442;DHT22;64019;48.312;14.226;2023-07-29T11:52:06;24.00;99.90
75442;DHT22;64019;48.312;14.226;2023-07-29T11:54:32;23.90;99.90
75442;DHT22;64019;48.312;14.226;2023-07-29T11:56:58;23.90;99.90
75442;DHT22;64019;48.312;14.226;2023-07-29T11:59:24;23.90;99.90
75442;DHT22;64019;48.312;14.226;2023-07-29T12:01:50;23.80;99.90
75442;DHT22;64019;48.312;14.226;2023-07-29T12:04:16;23.90;99.90
75442;DHT22;64019;48.312;14.226;2023-07-29T12:06:42;23.90;99.90
75442;DHT22;64019;48.312;14.226;2023-07-29T12:09:08;23.80;99.90
75442;DHT22;64019;48.312;14.226;2023-07-29T12:11:34;23.90;99.90
75442;DHT22;64019;48.312;14.226;2023-07-29T12:14:00;23.90;99.90
75442;DHT22;64019;48.312;14.226;2023-07-29T12:16:26;23.90;99.90
75442;DHT22;64019;48.312;14.226;2023-07-29T12:18:52;24.00;99.90
75442;DHT22;64019;48.312;14.226;2023-07-29T12:21:21;24.10;99.90
75442;DHT22;64019;48.312;14.226;2023-07-29T12:23:46;24.10;99.90
75442;DHT22;64019;48.312;14.226;2023-07-29T12:26:12;24.10;99.90
75442;DHT22;64019;48.312;14.226;2023-07-29T12:28:38;24.30;99.90
75442;DHT22;64019;48.312;14.226;2023-07-29T12:31:07;24.30;99.90
75442;DHT22;64019;48.312;14.226;2023-07-29T12:33:37;24.50;99.90
75442;DHT22;64019;48.312;14.226;2023-07-29T12:36:07;24.60;99.90
75442;DHT22;64019;48.312;14.226;2023-07-29T12:38:33;24.70;99.90
75442;DHT22;64019;48.312;14.226;2023-07-29T12:40:59;24.80;99.90
75442;DHT22;64019;48.312;14.226;2023-07-29T12:43:25;24.70;99.90
75442;DHT22;64019;48.312;14.226;2023-07-29T12:45:52;24.80;99.90
75442;DHT22;64019;48.312;14.226;2023-07-29T12:48:17;24.70;99.90
75442;DHT22;64019;48.312;14.226;2023-07-29T12:50:43;24.80;99.90
75442;DHT22;64019;48.312;14.226;2023-07-29T12:53:09;24.80;99.90
75442;DHT22;64019;48.312;14.226;2023-07-29T12:55:38;24.70;99.90
75442;DHT22;64019;48.312;14.226;2023-07-29T12:58:04;24.80;99.90
75442;DHT22;64019;48.312;14.226;2023-07-29T13:00:30;24.90;99.90
75442;DHT22;64019;48.312;14.226;2023-07-29T13:02:56;25.00;99.90
75442;DHT22;64019;48.312;14.226;2023-07-29T13:05:22;25.00;99.90
75442;DHT22;64019;48.312;14.226;2023-07-29T13:07:49;25.00;99.90
75442;DHT22;64019;48.312;14.226;2023-07-29T13:10:14;25.00;99.90
75442;DHT22;64019;48.312;14.226;2023-07-29T13:12:40;24.90;99.90
75442;DHT22;64019;48.312;14.226;2023-07-29T13:15:07;25.00;99.90
75442;DHT22;64019;48.312;14.226;2023-07-29T13:17:33;25.20;99.90
75442;DHT22;64019;48.312;14.226;2023-07-29T13:19:59;25.20;99.90
75442;DHT22;64019;48.312;14.226;2023-07-29T13:22:25;25.10;99.90
75442;DHT22;64019;48.312;14.226;2023-07-29T13:24:50;25.00;99.90
75442;DHT22;64019;48.312;14.226;2023-07-29T13:27:16;24.80;99.90
75442;DHT22;64019;48.312;14.226;2023-07-29T13:29:42;24.60;99.90
75442;DHT22;64019;48.312;14.226;2023-07-29T13:32:09;24.50;99.90
75442;DHT22;64019;48.312;14.226;2023-07-29T13:34:35;24.30;99.90
75442;DHT22;64019;48.312;14.226;2023-07-29T13:37:00;24.10;99.90
75442;DHT22;64019;48.312;14.226;2023-07-29T13:39:26;23.90;99.90
75442;DHT22;64019;48.312;14.226;2023-07-29T13:41:53;23.80;99.90
75442;DHT22;64019;48.312;14.226;2023-07-29T13:44:19;23.60;99.90
75442;DHT22;64019;48.312;14.226;2023-07-29T13:46:45;23.50;99.90
75442;DHT22;64019;48.312;14.226;2023-07-29T13:49:10;23.30;99.90
75442;DHT22;64019;48.312;14.226;2023-07-29T13:51:36;23.20;99.90
75442;DHT22;64019;48.312;14.226;2023-07-29T13:54:02;23.10;99.90
75442;DHT22;64019;48.312;14.226;2023-07-29T13:56:28;23.00;99.90
75442;DHT22;64019;48.312;14.226;2023-07-29T13:58:53;22.90;99.90
75442;DHT22;64019;48.312;14.226;2023-07-29T14:01:19;22.80;99.90
75442;DHT22;64019;48.312;14.226;2023-07-29T14:03:45;22.70;99.90
75442;DHT22;64019;48.312;14.226;2023-07-29T14:06:13;22.80;99.90
75442;DHT22;64019;48.312;14.226;2023-07-29T14:08:39;22.80;99.90
75442;DHT22;64019;48.312;14.226;2023-07-29T14:11:07;23.00;99.90
75442;DHT22;64019;48.312;14.226;2023-07-29T14:13:33;22.90;99.90
75442;DHT22;64019;48.312;14.226;2023-07-29T14:16:01;22.90;99.90
75442;DHT22;64019;48.312;14.226;2023-07-29T14:18:28;22.90;99.90
75442;DHT22;64019;48.312;14.226;2023-07-29T14:20:53;23.00;99.90
75442;DHT22;64019;48.312;14.226;2023-07-29T14:23:19;23.00;99.90
75442;DHT22;64019;48.312;14.226;2023-07-29T14:25:45;23.00;99.90
75442;DHT22;64019;48.312;14.226;2023-07-29T14:28:12;23.10;99.90
75442;DHT22;64019;48.312;14.226;2023-07-29T14:30:38;23.20;99.90
75442;DHT22;64019;48.312;14.226;2023-07-29T14:33:04;23.30;99.90
75442;DHT22;64019;48.312;14.226;2023-07-29T14:35:30;23.50;99.90
75442;DHT22;64019;48.312;14.226;2023-07-29T14:37:56;23.60;99.90
75442;DHT22;64019;48.312;14.226;2023-07-29T14:40:21;23.50;99.90
75442;DHT22;64019;48.312;14.226;2023-07-29T14:42:47;23.40;99.90
75442;DHT22;64019;48.312;14.226;2023-07-29T14:45:13;23.50;99.90
75442;DHT22;64019;48.312;14.226;2023-07-29T14:47:38;23.60;99.90
75442;DHT22;64019;48.312;14.226;2023-07-29T14:50:05;23.40;99.90
75442;DHT22;64019;48.312;14.226;2023-07-29T14:52:31;23.50;99.90
75442;DHT22;64019;48.312;14.226;2023-07-29T14:54:56;23.50;99.90
75442;DHT22;64019;48.312;14.226;2023-07-29T14:57:22;23.60;99.90
75442;DHT22;64019;48.312;14.226;2023-07-29T14:59:48;23.60;99.90
75442;DHT22;64019;48.312;14.226;2023-07-29T15:02:13;23.50;99.90
75442;DHT22;64019;48.312;14.226;2023-07-29T15:04:39;23.40;99.90
75442;DHT22;64019;48.312;14.226;2023-07-29T15:07:05;23.50;99.90
75442;DHT22;64019;48.312;14.226;2023-07-29T15:09:31;23.50;99.90
75442;DHT22;64019;48.312;14.226;2023-07-29T15:11:56;23.50;99.90
75442;DHT22;64019;48.312;14.226;2023-07-29T15:14:22;23.40;99.90
75442;DHT22;64019;48.312;14.226;2023-07-29T15:16:48;23.60;99.90
75442;DHT22;64019;48.312;14.226;2023-07-29T15:19:13;23.60;99.90
75442;DHT22;64019;48.312;14.226;2023-07-29T15:21:40;23.60;99.90
75442;DHT22;64019;48.312;14.226;2023-07-29T15:24:06;23.60;99.90
75442;DHT22;64019;48.312;14.226;2023-07-29T15:26:32;23.50;99.90
75442;DHT22;64019;48.312;14.226;2023-07-29T15:28:59;23.50;99.90